createdAt,value
2022-11-30T00:00:33.638Z,98559.91
2022-11-30T00:03:00.556Z,98546.38
2022-11-30T00:05:27.579Z,98551.16
2022-11-30T00:07:54.687Z,98563.28
2022-11-30T00:10:22.168Z,98545.34
2022-11-30T00:12:49.506Z,98547.06
2022-11-30T00:15:17.609Z,98548.81
2022-11-30T00:17:45.229Z,98546.28
2022-11-30T00:20:16.637Z,98540.34
2022-11-30T00:22:43.393Z,98546.63
2022-11-30T00:25:10.115Z,98550.09
2022-11-30T00:27:36.705Z,98530.75
2022-11-30T00:30:03.706Z,98552.19
2022-11-30T00:32:30.294Z,98548.91
2022-11-30T00:34:57.008Z,98546.28
2022-11-30T00:37:23.781Z,98548.75
2022-11-30T00:39:50.400Z,98543.03
2022-11-30T00:42:17.139Z,98550.66
2022-11-30T00:44:43.912Z,98550.78
2022-11-30T00:47:14.024Z,98547.13
2022-11-30T00:49:40.760Z,98541.16
2022-11-30T00:52:07.943Z,98546.56
2022-11-30T00:54:34.688Z,98546.47
2022-11-30T00:57:01.392Z,98558.16
2022-11-30T00:59:29.472Z,98554.81
2022-11-30T01:01:56.227Z,98555.19
2022-11-30T01:04:23.276Z,98556.38
2022-11-30T01:06:50.079Z,98559.13
2022-11-30T01:09:16.651Z,98566.53
2022-11-30T01:11:43.288Z,98568.72
2022-11-30T01:14:10.005Z,98566.44
2022-11-30T01:16:36.716Z,98564.03
2022-11-30T01:19:04.086Z,98571.94
2022-11-30T01:21:30.888Z,98567.00
2022-11-30T01:23:57.500Z,98563.44
2022-11-30T01:26:24.225Z,98572.47
2022-11-30T01:28:56.309Z,98566.28
2022-11-30T01:31:24.937Z,98562.03
2022-11-30T01:33:55.984Z,98566.59
2022-11-30T01:36:25.890Z,98567.78
2022-11-30T01:38:56.159Z,98572.69
2022-11-30T01:41:32.708Z,98575.81
2022-11-30T01:44:05.326Z,98573.28
2022-11-30T01:47:10.029Z,98578.16
2022-11-30T01:49:41.742Z,98579.78
2022-11-30T01:52:15.190Z,98577.94
2022-11-30T01:54:54.818Z,98576.66
2022-11-30T01:57:24.452Z,98575.47
2022-11-30T01:59:53.528Z,98572.97
2022-11-30T02:02:26.628Z,98573.06
2022-11-30T02:04:54.403Z,98572.16
2022-11-30T02:07:21.991Z,98581.44
2022-11-30T02:09:48.690Z,98573.56
2022-11-30T02:12:32.078Z,98576.50
2022-11-30T02:15:06.667Z,98577.78
2022-11-30T02:18:02.341Z,98574.63
2022-11-30T02:20:47.343Z,98585.09
2022-11-30T02:23:41.799Z,98580.00
2022-11-30T02:26:34.585Z,98584.09
2022-11-30T02:29:11.150Z,98591.91
2022-11-30T02:31:44.544Z,98587.09
2022-11-30T02:34:13.899Z,98579.53
2022-11-30T02:36:40.699Z,98596.97
2022-11-30T02:39:07.411Z,98590.22
2022-11-30T02:41:41.177Z,98576.19
2022-11-30T02:44:11.339Z,98582.06
2022-11-30T02:46:59.586Z,98583.06
2022-11-30T02:49:31.917Z,98578.53
2022-11-30T02:52:00.186Z,98577.47
2022-11-30T02:54:26.880Z,98579.50
2022-11-30T02:56:53.491Z,98584.50
2022-11-30T02:59:20.759Z,98572.69
2022-11-30T03:01:47.420Z,98574.63
2022-11-30T03:04:14.119Z,98580.06
2022-11-30T03:06:40.782Z,98565.25
2022-11-30T03:09:07.628Z,98576.53
2022-11-30T03:11:34.449Z,98582.50
2022-11-30T03:14:01.107Z,98580.72
2022-11-30T03:16:27.847Z,98583.19
2022-11-30T03:18:54.552Z,98587.59
2022-11-30T03:21:21.527Z,98593.63
2022-11-30T03:23:48.251Z,98593.16
2022-11-30T03:26:15.017Z,98585.13
2022-11-30T03:28:41.901Z,98593.16
2022-11-30T03:31:14.150Z,98591.16
2022-11-30T03:33:42.121Z,98588.28
2022-11-30T03:36:11.097Z,98598.28
2022-11-30T03:38:38.606Z,98591.78
2022-11-30T03:41:08.717Z,98596.72
2022-11-30T03:43:35.659Z,98575.88
2022-11-30T03:46:02.469Z,98593.00
2022-11-30T03:48:29.518Z,98592.28
2022-11-30T03:50:56.121Z,98593.44
2022-11-30T03:53:24.044Z,98590.78
2022-11-30T03:55:55.308Z,98583.94
2022-11-30T03:58:22.292Z,98595.97
2022-11-30T04:00:49.055Z,98595.94
2022-11-30T04:03:16.114Z,98595.97
2022-11-30T04:05:43.251Z,98580.50
2022-11-30T04:08:09.966Z,98598.09
2022-11-30T04:10:36.561Z,98605.19
2022-11-30T04:13:03.307Z,98598.03
2022-11-30T04:15:29.877Z,98602.28
2022-11-30T04:17:56.524Z,98595.94
2022-11-30T04:20:23.233Z,98596.69
2022-11-30T04:22:49.876Z,98603.34
2022-11-30T04:25:16.708Z,98607.44
2022-11-30T04:27:46.893Z,98606.06
2022-11-30T04:30:14.067Z,98606.13
2022-11-30T04:32:40.682Z,98612.09
2022-11-30T04:35:07.791Z,98610.63
2022-11-30T04:37:34.790Z,98607.22
2022-11-30T04:40:01.480Z,98611.16
2022-11-30T04:42:28.041Z,98604.69
2022-11-30T04:44:54.693Z,98610.59
2022-11-30T04:47:21.555Z,98608.56
2022-11-30T04:49:48.056Z,98616.78
2022-11-30T04:52:15.169Z,98619.81
2022-11-30T04:54:41.775Z,98620.38
2022-11-30T04:57:08.433Z,98621.66
2022-11-30T04:59:35.027Z,98621.78
2022-11-30T05:02:01.867Z,98618.66
2022-11-30T05:04:28.576Z,98629.63
2022-11-30T05:06:55.236Z,98631.41
2022-11-30T05:09:22.028Z,98624.72
2022-11-30T05:11:49.477Z,98627.50
2022-11-30T05:14:16.144Z,98628.50
2022-11-30T05:16:42.816Z,98623.38
2022-11-30T05:19:09.569Z,98627.72
2022-11-30T05:21:36.238Z,98625.13
2022-11-30T05:24:02.883Z,98634.41
2022-11-30T05:26:29.547Z,98632.63
2022-11-30T05:28:56.175Z,98631.06
2022-11-30T05:31:23.030Z,98633.00
2022-11-30T05:33:51.587Z,98632.56
2022-11-30T05:36:18.690Z,98634.34
2022-11-30T05:38:46.207Z,98628.88
2022-11-30T05:41:13.363Z,98640.47
2022-11-30T05:43:40.480Z,98636.16
2022-11-30T05:46:09.047Z,98641.50
2022-11-30T05:48:36.905Z,98634.66
2022-11-30T05:51:18.082Z,98641.84
2022-11-30T05:53:46.005Z,98635.50
2022-11-30T05:56:19.091Z,98637.06
2022-11-30T05:58:46.918Z,98634.50
2022-11-30T06:01:27.534Z,98639.16
2022-11-30T06:03:55.005Z,98643.78
2022-11-30T06:06:22.871Z,98639.16
2022-11-30T06:08:52.147Z,98647.13
2022-11-30T06:11:18.837Z,98639.00
2022-11-30T06:13:45.741Z,98637.47
2022-11-30T06:16:12.508Z,98641.41
2022-11-30T06:18:40.205Z,98644.66
2022-11-30T06:21:09.714Z,98642.94
2022-11-30T06:23:38.781Z,98643.25
2022-11-30T06:26:11.494Z,98653.97
2022-11-30T06:28:40.587Z,98650.47
2022-11-30T06:31:09.326Z,98652.25
2022-11-30T06:33:36.084Z,98656.19
2022-11-30T06:36:03.937Z,98661.78
2022-11-30T06:38:31.186Z,98664.44
2022-11-30T06:41:09.349Z,98665.41
2022-11-30T06:43:37.460Z,98659.22
2022-11-30T06:46:05.544Z,98668.72
2022-11-30T06:48:33.101Z,98667.06
2022-11-30T06:51:00.558Z,98679.09
2022-11-30T06:53:27.791Z,98679.81
2022-11-30T06:55:54.930Z,98671.72
2022-11-30T06:58:21.689Z,98678.13
2022-11-30T07:00:48.592Z,98674.56
2022-11-30T07:03:15.663Z,98679.16
2022-11-30T07:05:44.878Z,98671.00
2022-11-30T07:08:13.726Z,98688.19
2022-11-30T07:10:42.013Z,98691.59
2022-11-30T07:13:16.459Z,98699.19
2022-11-30T07:15:43.953Z,98686.78
2022-11-30T07:18:12.050Z,98688.66
2022-11-30T07:20:39.287Z,98691.16
2022-11-30T07:23:24.853Z,98691.72
2022-11-30T07:26:09.307Z,98687.19
2022-11-30T07:28:38.608Z,98693.78
2022-11-30T07:31:18.552Z,98704.78
2022-11-30T07:33:45.802Z,98700.22
2022-11-30T07:36:13.000Z,98698.91
2022-11-30T07:38:39.994Z,98700.63
2022-11-30T07:41:07.314Z,98696.66
2022-11-30T07:43:34.621Z,98704.66
2022-11-30T07:46:01.771Z,98700.06
2022-11-30T07:48:29.285Z,98702.03
2022-11-30T07:51:03.226Z,98704.72
2022-11-30T07:53:29.874Z,98699.00
2022-11-30T07:56:01.953Z,98700.78
2022-11-30T07:58:29.018Z,98698.31
2022-11-30T08:00:55.708Z,98712.63
2022-11-30T08:03:22.488Z,98710.78
2022-11-30T08:05:49.042Z,98719.34
2022-11-30T08:08:15.639Z,98715.00
2022-11-30T08:10:42.275Z,98718.41
2022-11-30T08:13:09.107Z,98716.75
2022-11-30T08:15:35.940Z,98718.59
2022-11-30T08:18:07.039Z,98701.63
2022-11-30T08:20:33.757Z,98712.31
2022-11-30T08:23:00.487Z,98714.81
2022-11-30T08:25:27.267Z,98710.44
2022-11-30T08:27:53.773Z,98706.19
2022-11-30T08:30:20.636Z,98705.41
2022-11-30T08:32:47.420Z,98701.19
2022-11-30T08:35:14.082Z,98715.97
2022-11-30T08:37:40.704Z,98706.44
2022-11-30T08:40:07.729Z,98713.25
2022-11-30T08:42:34.507Z,98723.56
2022-11-30T08:45:01.196Z,98723.38
2022-11-30T08:47:31.104Z,98724.28
2022-11-30T08:49:58.651Z,98722.19
2022-11-30T08:52:25.302Z,98720.91
2022-11-30T08:54:52.713Z,98722.28
2022-11-30T08:57:21.322Z,98726.94
2022-11-30T08:59:49.149Z,98720.69
2022-11-30T09:02:18.771Z,98728.88
2022-11-30T09:04:49.261Z,98727.97
2022-11-30T09:07:35.552Z,98730.00
2022-11-30T09:10:02.212Z,98731.03
2022-11-30T09:12:28.841Z,98735.25
2022-11-30T09:14:58.247Z,98726.72
2022-11-30T09:17:26.017Z,98735.34
2022-11-30T09:19:52.699Z,98732.66
2022-11-30T09:22:19.389Z,98738.00
2022-11-30T09:24:46.334Z,98737.75
2022-11-30T09:27:13.268Z,98727.31
2022-11-30T09:29:39.921Z,98737.41
2022-11-30T09:32:06.884Z,98724.06
2022-11-30T09:34:33.434Z,98734.72
2022-11-30T09:37:00.073Z,98732.94
2022-11-30T09:39:26.675Z,98726.78
2022-11-30T09:42:05.434Z,98727.19
2022-11-30T09:44:37.940Z,98724.56
2022-11-30T09:47:15.274Z,98725.50
2022-11-30T09:49:45.465Z,98718.00
2022-11-30T09:52:18.776Z,98715.88
2022-11-30T09:54:46.908Z,98713.91
2022-11-30T09:57:31.855Z,98724.03
2022-11-30T09:59:59.790Z,98721.47
2022-11-30T10:02:33.900Z,98713.41
2022-11-30T10:05:01.075Z,98719.47
2022-11-30T10:07:49.349Z,98720.81
2022-11-30T10:10:34.724Z,98727.56
2022-11-30T10:13:23.495Z,98721.34
2022-11-30T10:16:08.497Z,98726.16
2022-11-30T10:18:41.738Z,98720.91
2022-11-30T10:21:26.685Z,98713.16
2022-11-30T10:23:59.197Z,98720.41
2022-11-30T10:26:34.155Z,98711.94
2022-11-30T10:29:11.190Z,98709.44
2022-11-30T10:31:40.007Z,98705.88
2022-11-30T10:34:18.865Z,98713.50
2022-11-30T10:36:52.227Z,98713.47
2022-11-30T10:39:32.440Z,98712.22
2022-11-30T10:42:19.321Z,98705.44
2022-11-30T10:45:00.158Z,98707.97
2022-11-30T10:47:31.399Z,98706.22
2022-11-30T10:49:58.056Z,98705.22
2022-11-30T10:52:28.990Z,98694.66
2022-11-30T10:55:02.196Z,98700.22
2022-11-30T10:57:32.406Z,98699.84
2022-11-30T11:00:03.826Z,98701.56
2022-11-30T11:02:49.363Z,98698.31
2022-11-30T11:05:28.211Z,98694.72
2022-11-30T11:08:01.462Z,98684.84
2022-11-30T11:10:36.380Z,98707.00
2022-11-30T11:13:05.093Z,98700.97
2022-11-30T11:15:34.243Z,98700.41
2022-11-30T11:18:16.254Z,98694.53
2022-11-30T11:20:43.675Z,98698.91
2022-11-30T11:23:30.265Z,98688.25
2022-11-30T11:25:57.608Z,98688.41
2022-11-30T11:28:25.978Z,98691.25
2022-11-30T11:30:55.305Z,98691.81
2022-11-30T11:33:26.133Z,98692.34
2022-11-30T11:36:12.419Z,98687.97
2022-11-30T11:38:42.900Z,98681.97
2022-11-30T11:41:18.460Z,98683.34
2022-11-30T11:44:06.771Z,98684.84
2022-11-30T11:46:37.416Z,98687.50
2022-11-30T11:49:21.118Z,98683.72
2022-11-30T11:51:56.818Z,98689.09
2022-11-30T11:54:38.631Z,98695.78
2022-11-30T11:57:11.829Z,98687.00
2022-11-30T11:59:53.844Z,98689.47
2022-11-30T12:02:38.532Z,98682.97
2022-11-30T12:05:05.270Z,98691.56
2022-11-30T12:07:45.267Z,98685.81
2022-11-30T12:10:43.645Z,98694.94
2022-11-30T12:13:02.074Z,98686.50
2022-11-30T12:15:37.276Z,98681.00
2022-11-30T12:18:24.263Z,98688.16
2022-11-30T12:21:14.586Z,98689.16
2022-11-30T12:24:25.682Z,98683.31
2022-11-30T12:27:07.237Z,98687.78
2022-11-30T12:29:56.081Z,98691.56
2022-11-30T12:32:42.519Z,98695.69
2022-11-30T12:35:35.604Z,98679.41
2022-11-30T12:38:14.420Z,98696.06
2022-11-30T12:40:47.326Z,98689.72
2022-11-30T12:43:51.496Z,98686.22
2022-11-30T12:46:35.786Z,98681.16
2022-11-30T12:49:31.938Z,98690.03
2022-11-30T12:52:28.299Z,98689.78
2022-11-30T12:55:14.975Z,98675.72
2022-11-30T12:57:48.722Z,98670.03
2022-11-30T13:00:24.790Z,98669.31
2022-11-30T13:03:02.594Z,98671.31
2022-11-30T13:05:40.059Z,98669.50
2022-11-30T13:08:25.765Z,98677.19
2022-11-30T13:11:06.203Z,98680.59
2022-11-30T13:13:36.923Z,98676.50
2022-11-30T13:16:08.509Z,98682.56
2022-11-30T13:18:37.830Z,98672.75
2022-11-30T13:21:21.293Z,98677.59
2022-11-30T13:24:19.937Z,98685.88
2022-11-30T13:27:06.677Z,98678.84
2022-11-30T13:29:59.270Z,98681.69
2022-11-30T13:35:29.675Z,98686.94
2022-11-30T13:38:35.798Z,98681.06
2022-11-30T13:41:04.667Z,98683.41
2022-11-30T13:43:48.115Z,98689.09
2022-11-30T13:46:27.013Z,98672.22
2022-11-30T13:49:23.935Z,98676.84
2022-11-30T13:52:13.655Z,98677.69
2022-11-30T13:54:50.299Z,98687.56
2022-11-30T13:57:30.054Z,98689.34
2022-11-30T14:00:02.337Z,98677.84
2022-11-30T14:02:41.783Z,98684.75
2022-11-30T14:05:17.650Z,98683.88
2022-11-30T14:08:00.758Z,98688.50
2022-11-30T14:10:29.278Z,98687.66
2022-11-30T14:13:09.825Z,98685.63
2022-11-30T14:15:41.167Z,98686.09
2022-11-30T14:18:07.902Z,98696.66
2022-11-30T14:20:42.882Z,98683.34
2022-11-30T14:23:19.396Z,98683.94
2022-11-30T14:25:51.197Z,98687.19
2022-11-30T14:28:32.975Z,98694.22
2022-11-30T14:31:00.594Z,98699.59
2022-11-30T14:33:40.910Z,98693.47
2022-11-30T14:36:09.613Z,98692.41
2022-11-30T14:38:41.854Z,98691.38
2022-11-30T14:41:25.760Z,98690.63
2022-11-30T14:44:13.797Z,98695.81
2022-11-30T14:46:41.418Z,98696.56
2022-11-30T14:49:14.798Z,98704.59
2022-11-30T14:51:54.290Z,98701.06
2022-11-30T14:54:36.633Z,98694.63
2022-11-30T14:57:34.115Z,98694.28
2022-11-30T15:00:01.043Z,98690.38
2022-11-30T15:02:39.024Z,98689.34
2022-11-30T15:05:15.607Z,98685.06
2022-11-30T15:07:43.984Z,98681.56
2022-11-30T15:10:16.361Z,98678.09
2022-11-30T15:12:45.098Z,98680.25
2022-11-30T15:15:11.763Z,98682.63
2022-11-30T15:18:04.841Z,98691.47
2022-11-30T15:20:41.475Z,98694.41
2022-11-30T15:23:14.176Z,98695.81
2022-11-30T15:25:46.854Z,98689.69
2022-11-30T15:28:20.042Z,98690.91
2022-11-30T15:30:49.776Z,98688.19
2022-11-30T15:33:22.467Z,98693.16
2022-11-30T15:38:40.393Z,98693.66
2022-11-30T15:41:18.069Z,98701.94
2022-11-30T15:43:50.860Z,98704.44
2022-11-30T15:46:39.988Z,98699.59
2022-11-30T15:49:17.517Z,98710.13
2022-11-30T15:51:47.403Z,98700.44
2022-11-30T15:54:16.689Z,98706.84
2022-11-30T15:56:56.608Z,98713.06
2022-11-30T15:59:25.635Z,98710.00
2022-11-30T16:02:14.741Z,98708.00
2022-11-30T16:05:14.516Z,98714.72
2022-11-30T16:07:51.832Z,98721.84
2022-11-30T16:10:29.559Z,98714.78
2022-11-30T16:12:56.791Z,98717.59
2022-11-30T16:15:29.447Z,98716.00
2022-11-30T16:18:00.404Z,98713.00
2022-11-30T16:20:27.184Z,98717.16
2022-11-30T16:22:53.703Z,98717.25
2022-11-30T16:25:23.393Z,98713.69
2022-11-30T16:27:50.936Z,98719.97
2022-11-30T16:30:21.148Z,98709.34
2022-11-30T16:32:48.375Z,98711.88
2022-11-30T16:35:44.481Z,98715.66
2022-11-30T16:38:11.310Z,98706.22
2022-11-30T16:40:39.214Z,98718.88
2022-11-30T16:43:06.775Z,98715.03
2022-11-30T16:45:36.561Z,98712.06
2022-11-30T16:48:04.407Z,98707.16
2022-11-30T16:50:32.835Z,98713.44
2022-11-30T16:52:59.673Z,98710.97
2022-11-30T16:55:37.842Z,98704.41
2022-11-30T16:58:05.188Z,98708.94
2022-11-30T17:00:33.170Z,98708.47
2022-11-30T17:03:06.416Z,98708.56
2022-11-30T17:05:33.199Z,98704.56
2022-11-30T17:08:00.238Z,98715.63
2022-11-30T17:10:27.251Z,98708.13
2022-11-30T17:12:54.094Z,98704.78
2022-11-30T17:15:22.541Z,98717.94
2022-11-30T17:17:49.479Z,98723.16
2022-11-30T17:20:17.997Z,98727.59
2022-11-30T17:22:45.406Z,98725.47
2022-11-30T17:25:20.004Z,98731.34
2022-11-30T17:27:47.795Z,98723.38
2022-11-30T17:30:18.593Z,98728.03
2022-11-30T17:32:45.653Z,98723.19
2022-11-30T17:35:12.666Z,98726.66
2022-11-30T17:37:39.551Z,98732.00
2022-11-30T17:40:07.344Z,98733.91
2022-11-30T17:42:34.572Z,98733.69
2022-11-30T17:45:01.258Z,98734.47
2022-11-30T17:47:27.921Z,98733.53
2022-11-30T17:49:54.726Z,98738.66
2022-11-30T17:52:21.300Z,98747.31
2022-11-30T17:54:48.128Z,98742.75
2022-11-30T17:57:14.947Z,98739.69
2022-11-30T17:59:42.373Z,98741.00
2022-11-30T18:02:12.708Z,98738.75
2022-11-30T18:04:40.670Z,98731.41
2022-11-30T18:07:07.261Z,98736.31
2022-11-30T18:09:39.271Z,98726.63
2022-11-30T18:12:09.133Z,98735.91
2022-11-30T18:14:36.501Z,98740.41
2022-11-30T18:17:03.203Z,98731.31
2022-11-30T18:19:29.945Z,98747.63
2022-11-30T18:21:59.776Z,98741.25
2022-11-30T18:24:26.578Z,98744.38
2022-11-30T18:26:54.546Z,98740.75
2022-11-30T18:29:21.535Z,98743.22
2022-11-30T18:31:48.781Z,98753.19
2022-11-30T18:34:18.604Z,98743.38
2022-11-30T18:36:45.639Z,98747.78
2022-11-30T18:39:12.254Z,98745.31
2022-11-30T18:41:39.269Z,98753.97
2022-11-30T18:44:06.240Z,98743.13
2022-11-30T18:46:33.009Z,98742.50
2022-11-30T18:49:01.113Z,98751.06
2022-11-30T18:51:30.726Z,98742.78
2022-11-30T18:54:00.183Z,98750.16
2022-11-30T18:56:29.959Z,98754.91
2022-11-30T18:59:02.737Z,98765.75
2022-11-30T19:01:29.854Z,98764.78
2022-11-30T19:03:58.775Z,98762.88
2022-11-30T19:06:29.772Z,98763.13
2022-11-30T19:08:57.219Z,98762.34
2022-11-30T19:11:24.010Z,98761.78
2022-11-30T19:13:57.643Z,98766.97
2022-11-30T19:16:28.409Z,98761.84
2022-11-30T19:18:58.628Z,98769.25
2022-11-30T19:21:26.964Z,98772.16
2022-11-30T19:23:53.801Z,98766.34
2022-11-30T19:26:20.525Z,98769.94
2022-11-30T19:28:47.324Z,98776.81
2022-11-30T19:31:15.824Z,98782.25
2022-11-30T19:33:44.681Z,98784.63
2022-11-30T19:36:15.390Z,98775.91
2022-11-30T19:38:42.064Z,98784.50
2022-11-30T19:41:12.179Z,98786.06
2022-11-30T19:43:39.664Z,98782.59
2022-11-30T19:46:08.842Z,98784.50
2022-11-30T19:48:36.120Z,98787.91
2022-11-30T19:51:10.874Z,98781.94
2022-11-30T19:53:41.355Z,98778.47
2022-11-30T19:56:10.704Z,98791.94
2022-11-30T19:58:37.393Z,98786.75
2022-11-30T20:01:05.177Z,98785.63
2022-11-30T20:03:35.924Z,98795.34
2022-11-30T20:06:03.351Z,98788.59
2022-11-30T20:08:30.532Z,98796.91
2022-11-30T20:10:57.160Z,98797.94
2022-11-30T20:13:23.891Z,98794.00
2022-11-30T20:15:50.553Z,98785.34
2022-11-30T20:18:17.266Z,98786.03
2022-11-30T20:20:44.363Z,98788.50
2022-11-30T20:23:11.063Z,98792.31
2022-11-30T20:25:37.710Z,98794.47
2022-11-30T20:28:09.636Z,98777.81
2022-11-30T20:30:39.194Z,98783.72
2022-11-30T20:33:05.773Z,98793.44
2022-11-30T20:35:32.348Z,98786.13
2022-11-30T20:37:59.065Z,98789.69
2022-11-30T20:40:25.731Z,98777.81
2022-11-30T20:42:53.275Z,98786.81
2022-11-30T20:45:19.997Z,98788.88
2022-11-30T20:47:46.600Z,98782.59
2022-11-30T20:50:13.670Z,98789.09
2022-11-30T20:52:41.566Z,98793.47
2022-11-30T20:55:08.697Z,98784.50
2022-11-30T20:57:35.422Z,98793.47
2022-11-30T21:00:02.254Z,98800.44
2022-11-30T21:02:28.974Z,98790.72
2022-11-30T21:04:55.686Z,98801.94
2022-11-30T21:07:22.772Z,98789.56
2022-11-30T21:09:49.798Z,98787.84
2022-11-30T21:12:16.467Z,98792.13
2022-11-30T21:14:43.028Z,98790.41
2022-11-30T21:17:10.754Z,98795.84
2022-11-30T21:19:37.348Z,98782.72
2022-11-30T21:22:04.645Z,98785.22
2022-11-30T21:24:31.243Z,98791.50
2022-11-30T21:26:57.920Z,98797.31
2022-11-30T21:29:24.574Z,98796.75
2022-11-30T21:31:51.197Z,98795.56
2022-11-30T21:34:18.672Z,98792.66
2022-11-30T21:36:45.607Z,98787.75
2022-11-30T21:39:14.655Z,98784.97
2022-11-30T21:41:42.240Z,98785.56
2022-11-30T21:44:12.252Z,98792.88
2022-11-30T21:46:38.971Z,98790.53
2022-11-30T21:49:05.984Z,98789.66
2022-11-30T21:51:33.029Z,98787.69
2022-11-30T21:54:02.643Z,98791.09
2022-11-30T21:56:33.309Z,98787.63
2022-11-30T21:59:01.985Z,98794.00
2022-11-30T22:01:31.338Z,98788.69
2022-11-30T22:03:59.808Z,98794.69
2022-11-30T22:06:28.380Z,98787.53
2022-11-30T22:09:03.229Z,98791.09
2022-11-30T22:11:30.989Z,98791.28
2022-11-30T22:13:57.778Z,98788.09
2022-11-30T22:16:25.120Z,98796.53
2022-11-30T22:18:53.757Z,98786.53
2022-11-30T22:21:23.772Z,98797.69
2022-11-30T22:24:02.707Z,98798.09
2022-11-30T22:26:30.529Z,98796.41
2022-11-30T22:28:59.411Z,98796.19
2022-11-30T22:31:28.674Z,98799.75
2022-11-30T22:33:55.894Z,98793.06
2022-11-30T22:36:25.589Z,98785.66
2022-11-30T22:38:57.677Z,98792.28
2022-11-30T22:41:25.444Z,98787.03
2022-11-30T22:43:53.118Z,98794.06
2022-11-30T22:46:23.449Z,98789.66
2022-11-30T22:48:50.932Z,98786.25
2022-11-30T22:51:20.584Z,98787.09
2022-11-30T22:53:47.980Z,98793.91
2022-11-30T22:56:16.066Z,98788.88
2022-11-30T22:58:43.993Z,98783.34
2022-11-30T23:01:25.111Z,98781.09
2022-11-30T23:03:54.546Z,98777.53
2022-11-30T23:06:22.612Z,98769.28
2022-11-30T23:08:50.871Z,98772.34
2022-11-30T23:11:23.153Z,98764.84
2022-11-30T23:13:50.125Z,98772.78
2022-11-30T23:16:16.919Z,98764.47
2022-11-30T23:18:55.558Z,98769.13
2022-11-30T23:21:26.190Z,98769.81
2022-11-30T23:23:55.417Z,98753.84
2022-11-30T23:26:24.851Z,98766.28
2022-11-30T23:28:53.679Z,98759.53
2022-11-30T23:31:33.661Z,98762.41
2022-11-30T23:34:06.992Z,98763.41
2022-11-30T23:36:35.184Z,98763.47
2022-11-30T23:39:05.685Z,98766.50
2022-11-30T23:41:32.676Z,98752.00
2022-11-30T23:43:59.312Z,98753.69
2022-11-30T23:46:26.284Z,98763.56
2022-11-30T23:48:53.162Z,98757.19
2022-11-30T23:51:19.832Z,98759.44
2022-11-30T23:53:47.685Z,98758.06
2022-11-30T23:56:16.193Z,98747.78
2022-11-30T23:58:43.248Z,98757.09
